sensor_id;sensor_type;location;lat;lon;timestamp;P1;durP1;ratioP1;P2;durP2;ratioP2
58990;SDS011;44781;53.444;14.476;2023-03-02T00:00:57;18.80;;;10.20;;
58990;SDS011;44781;53.444;14.476;2023-03-02T00:03:29;13.00;;;7.30;;
58990;SDS011;44781;53.444;14.476;2023-03-02T00:06:16;13.40;;;6.80;;
58990;SDS011;44781;53.444;14.476;2023-03-02T00:08:52;14.30;;;6.60;;
58990;SDS011;44781;53.444;14.476;2023-03-02T00:11:30;14.80;;;7.40;;
58990;SDS011;44781;53.444;14.476;2023-03-02T00:14:12;15.30;;;7.70;;
58990;SDS011;44781;53.444;14.476;2023-03-02T00:16:47;16.60;;;7.80;;
58990;SDS011;44781;53.444;14.476;2023-03-02T00:19:14;18.00;;;7.80;;
58990;SDS011;44781;53.444;14.476;2023-03-02T00:21:40;15.80;;;8.10;;
58990;SDS011;44781;53.444;14.476;2023-03-02T00:24:07;16.20;;;8.00;;
58990;SDS011;44781;53.444;14.476;2023-03-02T00:26:33;18.00;;;9.40;;
58990;SDS011;44781;53.444;14.476;2023-03-02T00:29:01;18.30;;;8.90;;
58990;SDS011;44781;53.444;14.476;2023-03-02T00:31:28;19.70;;;8.40;;
58990;SDS011;44781;53.444;14.476;2023-03-02T00:33:55;19.90;;;10.00;;
58990;SDS011;44781;53.444;14.476;2023-03-02T00:36:22;19.70;;;9.20;;
58990;SDS011;44781;53.444;14.476;2023-03-02T00:38:48;22.80;;;10.30;;
58990;SDS011;44781;53.444;14.476;2023-03-02T00:41:17;27.60;;;12.50;;
58990;SDS011;44781;53.444;14.476;2023-03-02T00:43:49;24.40;;;12.60;;
58990;SDS011;44781;53.444;14.476;2023-03-02T00:46:17;24.30;;;11.00;;
58990;SDS011;44781;53.444;14.476;2023-03-02T00:48:47;25.60;;;11.00;;
58990;SDS011;44781;53.444;14.476;2023-03-02T00:51:15;25.40;;;12.10;;
58990;SDS011;44781;53.444;14.476;2023-03-02T00:53:42;26.20;;;12.20;;
58990;SDS011;44781;53.444;14.476;2023-03-02T00:56:10;21.30;;;10.60;;
58990;SDS011;44781;53.444;14.476;2023-03-02T00:58:39;24.20;;;10.60;;
58990;SDS011;44781;53.444;14.476;2023-03-02T01:01:06;24.80;;;11.60;;
58990;SDS011;44781;53.444;14.476;2023-03-02T01:03:36;25.20;;;11.80;;
58990;SDS011;44781;53.444;14.476;2023-03-02T01:06:04;24.10;;;12.10;;
58990;SDS011;44781;53.444;14.476;2023-03-02T01:08:31;28.80;;;14.60;;
58990;SDS011;44781;53.444;14.476;2023-03-02T01:10:57;31.00;;;14.40;;
58990;SDS011;44781;53.444;14.476;2023-03-02T01:13:27;30.30;;;15.00;;
58990;SDS011;44781;53.444;14.476;2023-03-02T01:16:00;29.70;;;15.20;;
58990;SDS011;44781;53.444;14.476;2023-03-02T01:18:27;34.30;;;14.80;;
58990;SDS011;44781;53.444;14.476;2023-03-02T01:21:01;26.30;;;13.10;;
58990;SDS011;44781;53.444;14.476;2023-03-02T01:23:30;24.70;;;12.70;;
58990;SDS011;44781;53.444;14.476;2023-03-02T01:25:57;22.60;;;11.40;;
58990;SDS011;44781;53.444;14.476;2023-03-02T01:28:23;27.40;;;12.00;;
58990;SDS011;44781;53.444;14.476;2023-03-02T01:30:50;21.40;;;10.80;;
58990;SDS011;44781;53.444;14.476;2023-03-02T01:33:17;21.50;;;11.00;;
58990;SDS011;44781;53.444;14.476;2023-03-02T01:35:44;25.30;;;12.10;;
58990;SDS011;44781;53.444;14.476;2023-03-02T01:38:12;30.90;;;13.80;;
58990;SDS011;44781;53.444;14.476;2023-03-02T01:40:39;25.60;;;12.40;;
58990;SDS011;44781;53.444;14.476;2023-03-02T01:43:09;22.90;;;11.10;;
58990;SDS011;44781;53.444;14.476;2023-03-02T01:48:16;39.60;;;23.90;;
58990;SDS011;44781;53.444;14.476;2023-03-02T01:50:47;27.60;;;14.60;;
58990;SDS011;44781;53.444;14.476;2023-03-02T01:53:13;24.30;;;11.30;;
58990;SDS011;44781;53.444;14.476;2023-03-02T01:55:41;23.80;;;11.90;;
58990;SDS011;44781;53.444;14.476;2023-03-02T01:58:09;20.00;;;10.00;;
58990;SDS011;44781;53.444;14.476;2023-03-02T02:00:38;23.10;;;12.00;;
58990;SDS011;44781;53.444;14.476;2023-03-02T02:03:13;23.10;;;12.10;;
58990;SDS011;44781;53.444;14.476;2023-03-02T02:05:47;23.30;;;12.30;;
58990;SDS011;44781;53.444;14.476;2023-03-02T02:08:49;19.60;;;10.60;;
58990;SDS011;44781;53.444;14.476;2023-03-02T02:11:19;24.60;;;11.80;;
58990;SDS011;44781;53.444;14.476;2023-03-02T02:13:49;22.90;;;11.40;;
58990;SDS011;44781;53.444;14.476;2023-03-02T02:16:20;24.30;;;11.90;;
58990;SDS011;44781;53.444;14.476;2023-03-02T02:18:47;26.90;;;13.50;;
58990;SDS011;44781;53.444;14.476;2023-03-02T02:21:13;26.30;;;13.50;;
58990;SDS011;44781;53.444;14.476;2023-03-02T02:26:36;25.80;;;13.10;;
58990;SDS011;44781;53.444;14.476;2023-03-02T02:29:20;25.10;;;13.20;;
58990;SDS011;44781;53.444;14.476;2023-03-02T02:31:53;26.10;;;15.00;;
58990;SDS011;44781;53.444;14.476;2023-03-02T02:40:02;28.50;;;14.30;;
58990;SDS011;44781;53.444;14.476;2023-03-02T02:42:38;28.30;;;14.70;;
58990;SDS011;44781;53.444;14.476;2023-03-02T02:45:20;31.10;;;15.80;;
58990;SDS011;44781;53.444;14.476;2023-03-02T02:47:49;32.00;;;16.20;;
58990;SDS011;44781;53.444;14.476;2023-03-02T02:50:27;31.40;;;16.50;;
58990;SDS011;44781;53.444;14.476;2023-03-02T02:53:01;27.50;;;13.80;;
58990;SDS011;44781;53.444;14.476;2023-03-02T02:55:30;25.30;;;13.20;;
58990;SDS011;44781;53.444;14.476;2023-03-02T02:58:01;21.90;;;11.80;;
58990;SDS011;44781;53.444;14.476;2023-03-02T03:00:35;22.10;;;11.90;;
58990;SDS011;44781;53.444;14.476;2023-03-02T03:03:05;23.00;;;11.50;;
58990;SDS011;44781;53.444;14.476;2023-03-02T03:06:00;21.00;;;11.00;;
58990;SDS011;44781;53.444;14.476;2023-03-02T03:11:15;15.50;;;8.00;;
58990;SDS011;44781;53.444;14.476;2023-03-02T03:14:01;16.90;;;7.50;;
58990;SDS011;44781;53.444;14.476;2023-03-02T03:16:37;12.80;;;7.00;;
58990;SDS011;44781;53.444;14.476;2023-03-02T03:19:12;13.90;;;7.60;;
58990;SDS011;44781;53.444;14.476;2023-03-02T03:21:43;13.10;;;6.90;;
58990;SDS011;44781;53.444;14.476;2023-03-02T03:24:11;9.60;;;5.00;;
58990;SDS011;44781;53.444;14.476;2023-03-02T03:26:37;10.40;;;5.30;;
58990;SDS011;44781;53.444;14.476;2023-03-02T03:29:05;9.60;;;4.90;;
58990;SDS011;44781;53.444;14.476;2023-03-02T03:31:33;9.50;;;4.70;;
58990;SDS011;44781;53.444;14.476;2023-03-02T03:34:01;8.20;;;4.20;;
58990;SDS011;44781;53.444;14.476;2023-03-02T03:36:31;8.20;;;4.00;;
58990;SDS011;44781;53.444;14.476;2023-03-02T03:38:59;9.30;;;4.90;;
58990;SDS011;44781;53.444;14.476;2023-03-02T03:41:28;10.00;;;4.80;;
58990;SDS011;44781;53.444;14.476;2023-03-02T03:43:56;9.20;;;4.50;;
58990;SDS011;44781;53.444;14.476;2023-03-02T03:46:23;7.50;;;3.90;;
58990;SDS011;44781;53.444;14.476;2023-03-02T03:48:50;7.40;;;3.80;;
58990;SDS011;44781;53.444;14.476;2023-03-02T03:51:17;8.10;;;4.00;;
58990;SDS011;44781;53.444;14.476;2023-03-02T03:53:45;8.00;;;3.80;;
58990;SDS011;44781;53.444;14.476;2023-03-02T03:56:26;9.60;;;4.60;;
58990;SDS011;44781;53.444;14.476;2023-03-02T03:58:55;9.20;;;4.30;;
58990;SDS011;44781;53.444;14.476;2023-03-02T04:01:42;9.50;;;4.20;;
58990;SDS011;44781;53.444;14.476;2023-03-02T04:04:14;9.60;;;4.20;;
58990;SDS011;44781;53.444;14.476;2023-03-02T04:06:43;9.90;;;5.10;;
58990;SDS011;44781;53.444;14.476;2023-03-02T04:09:10;8.90;;;5.10;;
58990;SDS011;44781;53.444;14.476;2023-03-02T04:11:38;8.80;;;4.90;;
58990;SDS011;44781;53.444;14.476;2023-03-02T04:14:07;10.50;;;5.40;;
58990;SDS011;44781;53.444;14.476;2023-03-02T04:16:35;9.20;;;4.50;;
58990;SDS011;44781;53.444;14.476;2023-03-02T04:19:03;10.60;;;5.50;;
58990;SDS011;44781;53.444;14.476;2023-03-02T04:21:36;11.40;;;5.80;;
58990;SDS011;44781;53.444;14.476;2023-03-02T04:24:05;8.10;;;3.80;;
58990;SDS011;44781;53.444;14.476;2023-03-02T04:26:39;9.80;;;4.60;;
58990;SDS011;44781;53.444;14.476;2023-03-02T04:29:13;9.90;;;5.00;;
58990;SDS011;44781;53.444;14.476;2023-03-02T04:31:40;9.30;;;4.50;;
58990;SDS011;44781;53.444;14.476;2023-03-02T04:34:13;10.30;;;5.00;;
58990;SDS011;44781;53.444;14.476;2023-03-02T04:36:41;11.50;;;6.50;;
58990;SDS011;44781;53.444;14.476;2023-03-02T04:39:12;8.60;;;4.40;;
58990;SDS011;44781;53.444;14.476;2023-03-02T04:41:44;11.70;;;5.60;;
58990;SDS011;44781;53.444;14.476;2023-03-02T04:44:11;10.20;;;4.90;;
58990;SDS011;44781;53.444;14.476;2023-03-02T04:46:38;11.70;;;5.60;;
58990;SDS011;44781;53.444;14.476;2023-03-02T04:49:06;11.20;;;5.10;;
58990;SDS011;44781;53.444;14.476;2023-03-02T04:51:34;10.20;;;5.30;;
58990;SDS011;44781;53.444;14.476;2023-03-02T04:54:07;11.90;;;5.10;;
58990;SDS011;44781;53.444;14.476;2023-03-02T04:56:39;10.80;;;5.90;;
58990;SDS011;44781;53.444;14.476;2023-03-02T04:59:05;11.60;;;5.50;;
58990;SDS011;44781;53.444;14.476;2023-03-02T05:01:32;13.70;;;6.30;;
58990;SDS011;44781;53.444;14.476;2023-03-02T05:03:58;13.50;;;6.30;;
58990;SDS011;44781;53.444;14.476;2023-03-02T05:06:25;13.00;;;5.60;;
58990;SDS011;44781;53.444;14.476;2023-03-02T05:08:52;10.60;;;5.00;;
58990;SDS011;44781;53.444;14.476;2023-03-02T05:11:20;12.70;;;5.50;;
58990;SDS011;44781;53.444;14.476;2023-03-02T05:13:49;12.10;;;5.10;;
58990;SDS011;44781;53.444;14.476;2023-03-02T05:16:17;13.20;;;6.10;;
58990;SDS011;44781;53.444;14.476;2023-03-02T05:18:44;11.30;;;5.20;;
58990;SDS011;44781;53.444;14.476;2023-03-02T05:21:11;12.00;;;6.00;;
58990;SDS011;44781;53.444;14.476;2023-03-02T05:23:39;13.00;;;5.90;;
58990;SDS011;44781;53.444;14.476;2023-03-02T05:26:06;12.20;;;6.00;;
58990;SDS011;44781;53.444;14.476;2023-03-02T05:28:33;11.70;;;6.00;;
58990;SDS011;44781;53.444;14.476;2023-03-02T05:31:00;12.50;;;6.60;;
58990;SDS011;44781;53.444;14.476;2023-03-02T05:33:30;12.00;;;6.90;;
58990;SDS011;44781;53.444;14.476;2023-03-02T05:35:57;13.40;;;6.30;;
58990;SDS011;44781;53.444;14.476;2023-03-02T05:38:25;14.90;;;7.00;;
58990;SDS011;44781;53.444;14.476;2023-03-02T05:40:52;13.10;;;6.10;;
58990;SDS011;44781;53.444;14.476;2023-03-02T05:43:19;13.90;;;5.90;;
58990;SDS011;44781;53.444;14.476;2023-03-02T05:45:46;13.60;;;6.40;;
58990;SDS011;44781;53.444;14.476;2023-03-02T05:48:13;14.40;;;6.50;;
58990;SDS011;44781;53.444;14.476;2023-03-02T05:50:40;14.30;;;6.80;;
58990;SDS011;44781;53.444;14.476;2023-03-02T05:53:07;12.60;;;6.20;;
58990;SDS011;44781;53.444;14.476;2023-03-02T05:55:34;14.40;;;7.00;;
58990;SDS011;44781;53.444;14.476;2023-03-02T05:58:05;16.40;;;7.00;;
58990;SDS011;44781;53.444;14.476;2023-03-02T06:00:34;14.40;;;7.10;;
58990;SDS011;44781;53.444;14.476;2023-03-02T06:03:00;12.60;;;6.20;;
58990;SDS011;44781;53.444;14.476;2023-03-02T06:05:27;13.00;;;6.50;;
58990;SDS011;44781;53.444;14.476;2023-03-02T06:07:54;13.30;;;6.80;;
58990;SDS011;44781;53.444;14.476;2023-03-02T06:10:22;15.70;;;7.50;;
58990;SDS011;44781;53.444;14.476;2023-03-02T06:12:49;14.30;;;7.10;;
58990;SDS011;44781;53.444;14.476;2023-03-02T06:15:16;13.50;;;6.70;;
58990;SDS011;44781;53.444;14.476;2023-03-02T06:17:43;14.70;;;7.20;;
58990;SDS011;44781;53.444;14.476;2023-03-02T06:20:10;13.90;;;8.00;;
58990;SDS011;44781;53.444;14.476;2023-03-02T06:22:37;14.50;;;6.90;;
58990;SDS011;44781;53.444;14.476;2023-03-02T06:25:07;15.50;;;7.90;;
58990;SDS011;44781;53.444;14.476;2023-03-02T06:27:35;16.40;;;7.40;;
58990;SDS011;44781;53.444;14.476;2023-03-02T06:30:03;13.60;;;7.20;;
58990;SDS011;44781;53.444;14.476;2023-03-02T06:32:32;13.90;;;7.10;;
58990;SDS011;44781;53.444;14.476;2023-03-02T06:35:00;13.50;;;7.90;;
58990;SDS011;44781;53.444;14.476;2023-03-02T06:37:30;14.40;;;7.50;;
58990;SDS011;44781;53.444;14.476;2023-03-02T06:40:00;16.90;;;8.00;;
58990;SDS011;44781;53.444;14.476;2023-03-02T06:42:29;15.50;;;8.50;;
58990;SDS011;44781;53.444;14.476;2023-03-02T06:44:55;16.40;;;8.80;;
58990;SDS011;44781;53.444;14.476;2023-03-02T06:47:31;14.80;;;8.40;;
58990;SDS011;44781;53.444;14.476;2023-03-02T06:49:59;16.60;;;9.20;;
58990;SDS011;44781;53.444;14.476;2023-03-02T06:52:26;17.30;;;9.90;;
58990;SDS011;44781;53.444;14.476;2023-03-02T06:54:53;16.90;;;9.90;;
58990;SDS011;44781;53.444;14.476;2023-03-02T06:57:20;16.20;;;9.90;;
58990;SDS011;44781;53.444;14.476;2023-03-02T06:59:47;15.30;;;9.20;;
58990;SDS011;44781;53.444;14.476;2023-03-02T07:02:13;17.30;;;9.60;;
58990;SDS011;44781;53.444;14.476;2023-03-02T07:04:40;16.20;;;8.40;;
58990;SDS011;44781;53.444;14.476;2023-03-02T07:07:06;16.50;;;8.60;;
58990;SDS011;44781;53.444;14.476;2023-03-02T07:09:35;16.00;;;9.30;;
58990;SDS011;44781;53.444;14.476;2023-03-02T07:12:02;15.30;;;9.30;;
58990;SDS011;44781;53.444;14.476;2023-03-02T07:14:29;15.40;;;9.10;;
58990;SDS011;44781;53.444;14.476;2023-03-02T07:16:55;21.70;;;12.80;;
58990;SDS011;44781;53.444;14.476;2023-03-02T07:19:23;17.60;;;10.50;;
58990;SDS011;44781;53.444;14.476;2023-03-02T07:21:50;13.70;;;8.90;;
58990;SDS011;44781;53.444;14.476;2023-03-02T07:24:30;13.30;;;8.60;;
58990;SDS011;44781;53.444;14.476;2023-03-02T07:27:10;13.30;;;8.30;;
58990;SDS011;44781;53.444;14.476;2023-03-02T07:29:48;14.30;;;8.40;;
58990;SDS011;44781;53.444;14.476;2023-03-02T07:32:16;15.30;;;8.80;;
58990;SDS011;44781;53.444;14.476;2023-03-02T07:34:43;14.00;;;8.80;;
58990;SDS011;44781;53.444;14.476;2023-03-02T07:37:17;17.00;;;8.70;;
58990;SDS011;44781;53.444;14.476;2023-03-02T07:39:46;13.80;;;8.70;;
58990;SDS011;44781;53.444;14.476;2023-03-02T07:42:14;13.80;;;8.30;;
58990;SDS011;44781;53.444;14.476;2023-03-02T07:44:43;12.50;;;8.50;;
58990;SDS011;44781;53.444;14.476;2023-03-02T07:47:10;13.50;;;8.30;;
58990;SDS011;44781;53.444;14.476;2023-03-02T07:49:38;13.50;;;8.20;;
58990;SDS011;44781;53.444;14.476;2023-03-02T07:52:05;12.40;;;7.80;;
58990;SDS011;44781;53.444;14.476;2023-03-02T07:54:34;13.80;;;9.20;;
58990;SDS011;44781;53.444;14.476;2023-03-02T07:57:02;13.70;;;9.00;;
58990;SDS011;44781;53.444;14.476;2023-03-02T07:59:32;13.40;;;8.50;;
58990;SDS011;44781;53.444;14.476;2023-03-02T08:01:59;16.80;;;9.70;;
58990;SDS011;44781;53.444;14.476;2023-03-02T08:04:27;15.90;;;9.20;;
58990;SDS011;44781;53.444;14.476;2023-03-02T08:06:54;15.90;;;10.50;;
58990;SDS011;44781;53.444;14.476;2023-03-02T08:09:24;14.60;;;9.10;;
58990;SDS011;44781;53.444;14.476;2023-03-02T08:11:51;15.50;;;9.70;;
58990;SDS011;44781;53.444;14.476;2023-03-02T08:14:20;14.90;;;10.50;;
58990;SDS011;44781;53.444;14.476;2023-03-02T08:16:48;16.90;;;10.50;;
58990;SDS011;44781;53.444;14.476;2023-03-02T08:19:18;17.90;;;13.10;;
58990;SDS011;44781;53.444;14.476;2023-03-02T08:21:46;15.40;;;10.50;;
58990;SDS011;44781;53.444;14.476;2023-03-02T08:24:15;16.80;;;10.60;;
58990;SDS011;44781;53.444;14.476;2023-03-02T08:26:43;15.00;;;9.90;;
58990;SDS011;44781;53.444;14.476;2023-03-02T08:29:11;18.00;;;12.10;;
58990;SDS011;44781;53.444;14.476;2023-03-02T08:31:38;18.40;;;12.30;;
58990;SDS011;44781;53.444;14.476;2023-03-02T08:36:59;18.70;;;12.40;;
58990;SDS011;44781;53.444;14.476;2023-03-02T08:39:26;18.20;;;11.90;;
58990;SDS011;44781;53.444;14.476;2023-03-02T08:41:55;17.90;;;12.30;;
58990;SDS011;44781;53.444;14.476;2023-03-02T08:44:23;17.00;;;12.00;;
58990;SDS011;44781;53.444;14.476;2023-03-02T08:46:53;18.50;;;12.00;;
58990;SDS011;44781;53.444;14.476;2023-03-02T08:49:21;18.70;;;12.50;;
58990;SDS011;44781;53.444;14.476;2023-03-02T08:51:57;18.80;;;12.30;;
58990;SDS011;44781;53.444;14.476;2023-03-02T08:54:25;17.00;;;12.30;;
58990;SDS011;44781;53.444;14.476;2023-03-02T08:56:52;17.80;;;11.50;;
58990;SDS011;44781;53.444;14.476;2023-03-02T08:59:20;17.10;;;11.10;;
58990;SDS011;44781;53.444;14.476;2023-03-02T09:01:47;17.20;;;11.50;;
58990;SDS011;44781;53.444;14.476;2023-03-02T09:04:15;17.70;;;11.80;;
58990;SDS011;44781;53.444;14.476;2023-03-02T09:06:44;18.60;;;12.30;;
58990;SDS011;44781;53.444;14.476;2023-03-02T09:09:14;16.40;;;11.00;;
58990;SDS011;44781;53.444;14.476;2023-03-02T09:11:44;18.10;;;11.40;;
58990;SDS011;44781;53.444;14.476;2023-03-02T09:14:12;18.40;;;11.80;;
58990;SDS011;44781;53.444;14.476;2023-03-02T09:16:41;18.60;;;12.00;;
58990;SDS011;44781;53.444;14.476;2023-03-02T09:19:11;16.70;;;11.40;;
58990;SDS011;44781;53.444;14.476;2023-03-02T09:21:40;17.50;;;11.50;;
58990;SDS011;44781;53.444;14.476;2023-03-02T09:24:09;16.00;;;11.10;;
58990;SDS011;44781;53.444;14.476;2023-03-02T09:26:37;16.90;;;10.80;;
58990;SDS011;44781;53.444;14.476;2023-03-02T09:29:04;16.40;;;10.90;;
58990;SDS011;44781;53.444;14.476;2023-03-02T09:31:33;15.90;;;11.20;;
58990;SDS011;44781;53.444;14.476;2023-03-02T09:34:01;16.50;;;10.70;;
58990;SDS011;44781;53.444;14.476;2023-03-02T09:36:28;15.80;;;10.90;;
58990;SDS011;44781;53.444;14.476;2023-03-02T09:38:58;18.40;;;12.00;;
58990;SDS011;44781;53.444;14.476;2023-03-02T09:48:04;17.10;;;11.10;;
58990;SDS011;44781;53.444;14.476;2023-03-02T09:50:51;16.60;;;10.50;;
58990;SDS011;44781;53.444;14.476;2023-03-02T09:56:06;16.50;;;10.90;;
58990;SDS011;44781;53.444;14.476;2023-03-02T09:58:41;15.70;;;11.10;;
58990;SDS011;44781;53.444;14.476;2023-03-02T10:01:20;14.70;;;10.50;;
58990;SDS011;44781;53.444;14.476;2023-03-02T10:04:46;15.10;;;10.00;;
58990;SDS011;44781;53.444;14.476;2023-03-02T10:06:56;15.30;;;9.50;;
58990;SDS011;44781;53.444;14.476;2023-03-02T10:09:28;14.60;;;10.80;;
58990;SDS011;44781;53.444;14.476;2023-03-02T10:15:11;15.00;;;10.20;;
58990;SDS011;44781;53.444;14.476;2023-03-02T10:20:37;15.00;;;9.80;;
58990;SDS011;44781;53.444;14.476;2023-03-02T10:23:45;13.90;;;9.20;;
58990;SDS011;44781;53.444;14.476;2023-03-02T10:29:50;14.40;;;9.70;;
58990;SDS011;44781;53.444;14.476;2023-03-02T10:32:35;14.80;;;9.30;;
58990;SDS011;44781;53.444;14.476;2023-03-02T10:35:22;14.00;;;9.50;;
58990;SDS011;44781;53.444;14.476;2023-03-02T10:38:44;14.00;;;9.40;;
58990;SDS011;44781;53.444;14.476;2023-03-02T10:41:27;15.60;;;9.70;;
58990;SDS011;44781;53.444;14.476;2023-03-02T10:47:21;15.10;;;10.00;;
58990;SDS011;44781;53.444;14.476;2023-03-02T10:49:56;14.90;;;8.50;;
58990;SDS011;44781;53.444;14.476;2023-03-02T10:52:47;12.60;;;8.70;;
58990;SDS011;44781;53.444;14.476;2023-03-02T10:55:45;14.00;;;9.50;;
58990;SDS011;44781;53.444;14.476;2023-03-02T10:58:38;14.10;;;9.30;;
58990;SDS011;44781;53.444;14.476;2023-03-02T11:02:11;14.00;;;9.20;;
58990;SDS011;44781;53.444;14.476;2023-03-02T11:09:03;15.20;;;10.90;;
58990;SDS011;44781;53.444;14.476;2023-03-02T11:12:47;13.50;;;9.50;;
58990;SDS011;44781;53.444;14.476;2023-03-02T11:15:43;14.70;;;9.40;;
58990;SDS011;44781;53.444;14.476;2023-03-02T11:23:20;15.10;;;9.70;;
58990;SDS011;44781;53.444;14.476;2023-03-02T11:31:25;13.10;;;9.40;;
58990;SDS011;44781;53.444;14.476;2023-03-02T11:36:48;13.70;;;8.60;;
58990;SDS011;44781;53.444;14.476;2023-03-02T11:39:44;13.10;;;9.30;;
58990;SDS011;44781;53.444;14.476;2023-03-02T11:42:23;12.40;;;9.00;;
58990;SDS011;44781;53.444;14.476;2023-03-02T11:51:26;12.70;;;9.40;;
58990;SDS011;44781;53.444;14.476;2023-03-02T11:57:45;14.80;;;9.70;;
58990;SDS011;44781;53.444;14.476;2023-03-02T12:00:43;12.60;;;9.70;;
58990;SDS011;44781;53.444;14.476;2023-03-02T12:03:22;13.60;;;8.80;;
58990;SDS011;44781;53.444;14.476;2023-03-02T12:09:27;13.50;;;9.30;;
58990;SDS011;44781;53.444;14.476;2023-03-02T12:15:35;12.10;;;9.10;;
58990;SDS011;44781;53.444;14.476;2023-03-02T12:18:39;12.50;;;9.20;;
58990;SDS011;44781;53.444;14.476;2023-03-02T12:21:25;12.80;;;8.70;;
58990;SDS011;44781;53.444;14.476;2023-03-02T12:23:54;14.20;;;9.50;;
58990;SDS011;44781;53.444;14.476;2023-03-02T12:26:45;12.80;;;9.00;;
58990;SDS011;44781;53.444;14.476;2023-03-02T12:47:48;15.90;;;11.30;;
58990;SDS011;44781;53.444;14.476;2023-03-02T12:50:23;15.40;;;11.00;;
58990;SDS011;44781;53.444;14.476;2023-03-02T12:53:00;15.80;;;11.60;;
58990;SDS011;44781;53.444;14.476;2023-03-02T12:55:31;15.70;;;11.10;;
58990;SDS011;44781;53.444;14.476;2023-03-02T12:58:00;15.80;;;10.80;;
58990;SDS011;44781;53.444;14.476;2023-03-02T13:00:31;15.70;;;11.80;;
58990;SDS011;44781;53.444;14.476;2023-03-02T13:03:03;16.30;;;11.50;;
58990;SDS011;44781;53.444;14.476;2023-03-02T13:05:37;16.00;;;11.10;;
58990;SDS011;44781;53.444;14.476;2023-03-02T13:08:12;15.60;;;11.70;;
58990;SDS011;44781;53.444;14.476;2023-03-02T13:10:48;14.30;;;10.70;;
58990;SDS011;44781;53.444;14.476;2023-03-02T13:15:56;20.10;;;11.80;;
58990;SDS011;44781;53.444;14.476;2023-03-02T13:18:27;21.30;;;12.70;;
58990;SDS011;44781;53.444;14.476;2023-03-02T13:21:00;16.10;;;11.50;;
58990;SDS011;44781;53.444;14.476;2023-03-02T13:23:31;15.70;;;11.20;;
58990;SDS011;44781;53.444;14.476;2023-03-02T13:26:00;15.60;;;10.80;;
58990;SDS011;44781;53.444;14.476;2023-03-02T13:28:33;15.00;;;11.30;;
58990;SDS011;44781;53.444;14.476;2023-03-02T13:31:06;15.90;;;11.40;;
58990;SDS011;44781;53.444;14.476;2023-03-02T13:33:47;13.80;;;10.60;;
58990;SDS011;44781;53.444;14.476;2023-03-02T13:36:17;14.50;;;10.30;;
58990;SDS011;44781;53.444;14.476;2023-03-02T13:38:53;15.60;;;10.90;;
58990;SDS011;44781;53.444;14.476;2023-03-02T13:41:31;15.30;;;10.90;;
58990;SDS011;44781;53.444;14.476;2023-03-02T13:44:10;15.30;;;10.70;;
58990;SDS011;44781;53.444;14.476;2023-03-02T13:46:47;15.10;;;10.70;;
58990;SDS011;44781;53.444;14.476;2023-03-02T13:49:24;15.10;;;10.80;;
58990;SDS011;44781;53.444;14.476;2023-03-02T13:52:38;15.20;;;11.20;;
58990;SDS011;44781;53.444;14.476;2023-03-02T13:54:56;13.90;;;10.40;;
58990;SDS011;44781;53.444;14.476;2023-03-02T13:57:26;14.10;;;10.70;;
58990;SDS011;44781;53.444;14.476;2023-03-02T13:59:56;14.40;;;10.00;;
58990;SDS011;44781;53.444;14.476;2023-03-02T14:02:28;14.10;;;10.50;;
58990;SDS011;44781;53.444;14.476;2023-03-02T14:04:56;15.40;;;11.00;;
58990;SDS011;44781;53.444;14.476;2023-03-02T14:07:24;14.20;;;10.60;;
58990;SDS011;44781;53.444;14.476;2023-03-02T14:09:51;14.80;;;10.60;;
58990;SDS011;44781;53.444;14.476;2023-03-02T14:12:22;13.90;;;10.20;;
58990;SDS011;44781;53.444;14.476;2023-03-02T14:14:50;14.80;;;10.60;;
58990;SDS011;44781;53.444;14.476;2023-03-02T14:17:20;13.30;;;9.90;;
58990;SDS011;44781;53.444;14.476;2023-03-02T14:19:52;13.80;;;9.70;;
58990;SDS011;44781;53.444;14.476;2023-03-02T14:22:23;14.50;;;11.40;;
58990;SDS011;44781;53.444;14.476;2023-03-02T14:24:52;13.40;;;9.60;;
58990;SDS011;44781;53.444;14.476;2023-03-02T14:27:19;13.70;;;9.90;;
58990;SDS011;44781;53.444;14.476;2023-03-02T14:29:49;13.00;;;9.80;;
58990;SDS011;44781;53.444;14.476;2023-03-02T14:32:19;12.80;;;9.70;;
58990;SDS011;44781;53.444;14.476;2023-03-02T14:34:46;13.90;;;10.80;;
58990;SDS011;44781;53.444;14.476;2023-03-02T14:37:14;16.70;;;11.60;;
58990;SDS011;44781;53.444;14.476;2023-03-02T14:39:50;20.60;;;14.90;;
58990;SDS011;44781;53.444;14.476;2023-03-02T14:42:18;13.90;;;11.00;;
58990;SDS011;44781;53.444;14.476;2023-03-02T14:44:47;14.00;;;10.20;;
58990;SDS011;44781;53.444;14.476;2023-03-02T14:47:16;12.80;;;9.70;;
58990;SDS011;44781;53.444;14.476;2023-03-02T14:49:47;14.10;;;10.40;;
58990;SDS011;44781;53.444;14.476;2023-03-02T14:52:16;13.10;;;10.10;;
58990;SDS011;44781;53.444;14.476;2023-03-02T14:55:04;12.20;;;9.40;;
58990;SDS011;44781;53.444;14.476;2023-03-02T14:57:38;10.80;;;8.40;;
58990;SDS011;44781;53.444;14.476;2023-03-02T15:00:06;16.40;;;11.80;;
58990;SDS011;44781;53.444;14.476;2023-03-02T15:02:43;19.90;;;16.90;;
58990;SDS011;44781;53.444;14.476;2023-03-02T15:05:11;14.50;;;11.20;;
58990;SDS011;44781;53.444;14.476;2023-03-02T15:07:53;13.50;;;10.30;;
58990;SDS011;44781;53.444;14.476;2023-03-02T15:10:28;15.10;;;11.30;;
58990;SDS011;44781;53.444;14.476;2023-03-02T15:12:55;12.80;;;9.50;;
58990;SDS011;44781;53.444;14.476;2023-03-02T15:15:29;21.30;;;19.10;;
58990;SDS011;44781;53.444;14.476;2023-03-02T15:17:59;12.60;;;10.00;;
58990;SDS011;44781;53.444;14.476;2023-03-02T15:20:27;13.40;;;9.80;;
58990;SDS011;44781;53.444;14.476;2023-03-02T15:22:59;13.00;;;9.90;;
58990;SDS011;44781;53.444;14.476;2023-03-02T15:25:41;15.70;;;11.40;;
58990;SDS011;44781;53.444;14.476;2023-03-02T15:28:32;13.90;;;10.60;;
58990;SDS011;44781;53.444;14.476;2023-03-02T15:31:15;12.70;;;9.40;;
58990;SDS011;44781;53.444;14.476;2023-03-02T15:34:03;11.60;;;8.90;;
58990;SDS011;44781;53.444;14.476;2023-03-02T15:37:28;14.20;;;10.00;;
58990;SDS011;44781;53.444;14.476;2023-03-02T15:40:11;12.00;;;8.80;;
58990;SDS011;44781;53.444;14.476;2023-03-02T15:42:44;12.90;;;8.70;;
58990;SDS011;44781;53.444;14.476;2023-03-02T15:45:12;14.20;;;10.60;;
58990;SDS011;44781;53.444;14.476;2023-03-02T15:47:39;13.70;;;10.00;;
58990;SDS011;44781;53.444;14.476;2023-03-02T15:50:07;15.80;;;11.30;;
58990;SDS011;44781;53.444;14.476;2023-03-02T15:52:35;17.40;;;12.40;;
58990;SDS011;44781;53.444;14.476;2023-03-02T15:55:03;18.60;;;12.50;;
58990;SDS011;44781;53.444;14.476;2023-03-02T15:57:34;20.00;;;13.80;;
58990;SDS011;44781;53.444;14.476;2023-03-02T16:00:05;17.60;;;11.90;;
58990;SDS011;44781;53.444;14.476;2023-03-02T16:02:35;18.50;;;13.90;;
58990;SDS011;44781;53.444;14.476;2023-03-02T16:05:17;19.90;;;14.40;;
58990;SDS011;44781;53.444;14.476;2023-03-02T16:07:45;18.80;;;12.80;;
58990;SDS011;44781;53.444;14.476;2023-03-02T16:10:15;19.80;;;12.00;;
58990;SDS011;44781;53.444;14.476;2023-03-02T16:12:44;18.20;;;12.70;;
58990;SDS011;44781;53.444;14.476;2023-03-02T16:15:13;18.60;;;13.70;;
58990;SDS011;44781;53.444;14.476;2023-03-02T16:17:40;17.70;;;12.40;;
58990;SDS011;44781;53.444;14.476;2023-03-02T16:20:08;19.40;;;13.10;;